Time;durP1;ratioP1;P1;durP2;ratioP2;P2;SDS_P1;SDS_P2;PMS_P1;PMS_P2;Temp;Humidity;BMP_temperature;BMP_pressure;BME280_temperature;BME280_humidity;BME280_pressure;Samples;Min_cycle;Max_cycle;Signal;HPM_P1;HPM_P2
2023/09/20 00:01:46;;;;;;;7.33;2.70;;;;;;;;;;5044377;28;20189;-81
2023/09/20 00:04:13;;;;;;;7.80;2.80;;;;;;;;;;5030053;28;20203;-81
2023/09/20 00:06:39;;;;;;;9.57;3.10;;;;;;;;;;5023738;28;20231;-81
2023/09/20 00:09:05;;;;;;;6.87;2.80;;;;;;;;;;5035891;28;20176;-81
2023/09/20 00:11:31;;;;;;;8.00;3.13;;;;;;;;;;5004486;28;20283;-81
2023/09/20 00:13:59;;;;;;;9.47;3.03;;;;;;;;;;5012217;28;20274;-85
2023/09/20 00:16:26;;;;;;;7.30;2.83;;;;;;;;;;5035356;28;20211;-85
2023/09/20 00:18:52;;;;;;;7.93;3.00;;;;;;;;;;5005678;28;20196;-85
2023/09/20 00:21:18;;;;;;;8.77;2.67;;;;;;;;;;5021591;28;20188;-84
2023/09/20 00:23:44;;;;;;;8.20;2.70;;;;;;;;;;5012252;28;20197;-85
2023/09/20 00:26:10;;;;;;;6.37;3.00;;;;;;;;;;5016622;28;20321;-85
2023/09/20 00:28:38;;;;;;;10.87;3.50;;;;;;;;;;5002925;28;20192;-85
2023/09/20 00:31:05;;;;;;;9.23;2.70;;;;;;;;;;5019868;28;20193;-84
2023/09/20 00:33:32;;;;;;;9.53;2.93;;;;;;;;;;5002154;28;20197;-85
2023/09/20 00:35:58;;;;;;;7.83;3.00;;;;;;;;;;5002046;28;20221;-85
2023/09/20 00:38:24;;;;;;;9.47;3.37;;;;;;;;;;5008417;28;20197;-84
2023/09/20 00:40:52;;;;;;;8.17;2.83;;;;;;;;;;5035916;23;20226;-75
2023/09/20 00:43:25;;;;;;;10.23;3.40;;;;;;;;;;5095851;28;20264;-74
2023/09/20 00:45:51;;;;;;;6.33;3.00;;;;;;;;;;5095451;28;20207;-75
2023/09/20 00:48:17;;;;;;;8.97;3.33;;;;;;;;;;5077979;28;20170;-78
2023/09/20 00:50:44;;;;;;;11.17;3.47;;;;;;;;;;5095495;28;20170;-78
2023/09/20 00:53:14;;;;;;;9.80;3.20;;;;;;;;;;5047995;28;20214;-78
2023/09/20 00:55:40;;;;;;;10.97;3.30;;;;;;;;;;5077380;28;20186;-78
2023/09/20 00:58:09;;;;;;;6.57;3.17;;;;;;;;;;5077535;28;20189;-78
2023/09/20 01:00:37;;;;;;;11.50;3.43;;;;;;;;;;5077285;28;20189;-78
2023/09/20 01:03:03;;;;;;;6.73;3.00;;;;;;;;;;5077188;28;20186;-77
2023/09/20 01:05:34;;;;;;;8.97;2.70;;;;;;;;;;5076438;28;20221;-74
2023/09/20 01:08:01;;;;;;;8.60;3.30;;;;;;;;;;5057054;28;20237;-74
2023/09/20 01:10:31;;;;;;;9.40;3.40;;;;;;;;;;5072659;28;20219;-74
2023/09/20 01:13:04;;;;;;;7.03;3.00;;;;;;;;;;5077506;28;20175;-75
2023/09/20 01:15:31;;;;;;;8.20;3.07;;;;;;;;;;5094725;28;20179;-77
2023/09/20 01:17:58;;;;;;;9.77;3.17;;;;;;;;;;5076666;28;20189;-75
2023/09/20 01:20:29;;;;;;;9.57;3.10;;;;;;;;;;5076217;28;20178;-78
2023/09/20 01:22:56;;;;;;;6.63;2.80;;;;;;;;;;5077627;28;20193;-78
2023/09/20 01:25:24;;;;;;;6.33;2.80;;;;;;;;;;5077180;28;20202;-78
2023/09/20 01:27:51;;;;;;;8.20;3.20;;;;;;;;;;5095045;28;20193;-78
2023/09/20 01:30:18;;;;;;;7.37;3.20;;;;;;;;;;5077396;28;20185;-78
2023/09/20 01:32:44;;;;;;;8.77;2.80;;;;;;;;;;5076618;28;20179;-78
2023/09/20 01:35:11;;;;;;;14.00;3.30;;;;;;;;;;5077993;28;20191;-78
2023/09/20 01:37:38;;;;;;;10.00;3.00;;;;;;;;;;5061098;28;20193;-78
2023/09/20 01:40:14;;;;;;;8.60;3.03;;;;;;;;;;5060412;28;20266;-78
2023/09/20 01:42:40;;;;;;;6.43;2.87;;;;;;;;;;5077222;28;20222;-78
2023/09/20 01:45:07;;;;;;;8.27;3.67;;;;;;;;;;5044025;28;20214;-78
2023/09/20 01:47:33;;;;;;;6.80;3.13;;;;;;;;;;5076910;28;20243;-79
2023/09/20 01:50:03;;;;;;;6.77;2.90;;;;;;;;;;5057082;28;20187;-78
2023/09/20 01:52:29;;;;;;;8.03;3.20;;;;;;;;;;5077368;28;20182;-78
2023/09/20 01:54:57;;;;;;;10.37;3.20;;;;;;;;;;5080424;28;20185;-75
2023/09/20 01:57:23;;;;;;;10.40;3.50;;;;;;;;;;5091940;28;20267;-75
2023/09/20 01:59:49;;;;;;;9.80;2.90;;;;;;;;;;5057063;28;20231;-75
2023/09/20 02:02:15;;;;;;;8.30;3.53;;;;;;;;;;5040668;28;20201;-75
2023/09/20 02:04:41;;;;;;;8.87;3.23;;;;;;;;;;5075215;28;20218;-75
2023/09/20 02:07:08;;;;;;;8.27;3.03;;;;;;;;;;5052712;28;20187;-75
2023/09/20 02:09:34;;;;;;;10.70;3.30;;;;;;;;;;5073313;28;20182;-75
2023/09/20 02:12:00;;;;;;;9.13;3.50;;;;;;;;;;5052535;28;20189;-74
2023/09/20 02:14:27;;;;;;;8.67;3.00;;;;;;;;;;5060358;28;20187;-75
2023/09/20 02:16:53;;;;;;;9.57;3.30;;;;;;;;;;5060656;28;20191;-74
2023/09/20 02:19:19;;;;;;;6.30;2.80;;;;;;;;;;5069179;28;20187;-75
2023/09/20 02:21:46;;;;;;;6.13;2.97;;;;;;;;;;5063266;28;20219;-75
2023/09/20 02:24:12;;;;;;;6.83;3.20;;;;;;;;;;5064035;28;20194;-76
2023/09/20 02:26:38;;;;;;;7.83;3.47;;;;;;;;;;5061990;28;20187;-76
2023/09/20 02:29:04;;;;;;;6.43;2.77;;;;;;;;;;5080589;28;20214;-76
2023/09/20 02:31:30;;;;;;;9.63;3.60;;;;;;;;;;5063930;28;20244;-76
2023/09/20 02:33:56;;;;;;;6.30;3.27;;;;;;;;;;5063357;28;20178;-76
2023/09/20 02:36:22;;;;;;;5.87;3.07;;;;;;;;;;5060458;28;20203;-76
2023/09/20 02:38:48;;;;;;;8.57;3.10;;;;;;;;;;5059747;28;20190;-76
2023/09/20 02:41:14;;;;;;;6.13;3.13;;;;;;;;;;5080186;28;20215;-76
2023/09/20 02:43:40;;;;;;;7.60;3.03;;;;;;;;;;5097978;28;20182;-76
2023/09/20 02:46:07;;;;;;;8.27;3.57;;;;;;;;;;5063591;28;20221;-76
2023/09/20 02:48:34;;;;;;;10.40;3.20;;;;;;;;;;5080298;28;20183;-76
2023/09/20 02:51:00;;;;;;;10.87;3.00;;;;;;;;;;5080330;28;20183;-76
2023/09/20 02:53:26;;;;;;;7.33;3.33;;;;;;;;;;5079511;28;20179;-76
2023/09/20 02:55:55;;;;;;;7.43;3.13;;;;;;;;;;5063161;28;20183;-76
2023/09/20 02:58:21;;;;;;;7.63;3.23;;;;;;;;;;5097721;28;20234;-76
2023/09/20 03:00:50;;;;;;;7.37;3.30;;;;;;;;;;5097405;28;20232;-75
2023/09/20 03:03:17;;;;;;;7.90;3.30;;;;;;;;;;5097798;28;20178;-75
2023/09/20 03:05:44;;;;;;;8.20;3.00;;;;;;;;;;5079730;28;20229;-75
2023/09/20 03:08:13;;;;;;;8.40;3.00;;;;;;;;;;5096796;28;20224;-75
2023/09/20 03:10:41;;;;;;;5.57;2.90;;;;;;;;;;5079402;28;20197;-75
2023/09/20 03:13:10;;;;;;;12.27;3.30;;;;;;;;;;5079322;28;20178;-75
2023/09/20 03:15:43;;;;;;;8.73;3.33;;;;;;;;;;5061129;28;20183;-75
2023/09/20 03:18:10;;;;;;;6.87;3.10;;;;;;;;;;5085078;28;20178;-75
2023/09/20 03:20:38;;;;;;;8.80;3.37;;;;;;;;;;5079229;28;20190;-76
2023/09/20 03:23:04;;;;;;;10.57;3.03;;;;;;;;;;5097392;28;20198;-76
2023/09/20 03:25:36;;;;;;;8.63;2.90;;;;;;;;;;5059194;28;20215;-76
2023/09/20 03:28:07;;;;;;;6.03;2.90;;;;;;;;;;5059571;28;20175;-76
2023/09/20 03:30:33;;;;;;;8.73;3.23;;;;;;;;;;5084841;28;20259;-76
2023/09/20 03:32:59;;;;;;;7.17;3.43;;;;;;;;;;5097132;28;20243;-75
2023/09/20 03:35:27;;;;;;;7.60;3.10;;;;;;;;;;5097350;28;20182;-76
2023/09/20 03:37:54;;;;;;;7.30;3.33;;;;;;;;;;5079139;28;20190;-76
2023/09/20 03:40:22;;;;;;;7.33;3.30;;;;;;;;;;5089280;28;20179;-76
2023/09/20 03:42:48;;;;;;;7.70;2.97;;;;;;;;;;5065581;28;20301;-76
2023/09/20 03:45:15;;;;;;;7.67;3.03;;;;;;;;;;5101383;28;20220;-76
2023/09/20 03:47:41;;;;;;;7.27;2.80;;;;;;;;;;5078409;28;20219;-76
2023/09/20 03:50:11;;;;;;;10.17;3.47;;;;;;;;;;5098732;28;20188;-76
2023/09/20 03:52:38;;;;;;;10.27;3.47;;;;;;;;;;5103695;28;20196;-76
2023/09/20 03:55:05;;;;;;;7.80;3.00;;;;;;;;;;5078174;28;20186;-76
2023/09/20 03:57:31;;;;;;;10.87;3.40;;;;;;;;;;5075746;28;20277;-76
2023/09/20 03:59:59;;;;;;;8.37;3.40;;;;;;;;;;5075832;28;20185;-77
2023/09/20 04:02:26;;;;;;;8.60;3.33;;;;;;;;;;5062159;28;20272;-76
2023/09/20 04:04:52;;;;;;;8.80;3.37;;;;;;;;;;5078845;28;20209;-76
2023/09/20 04:07:19;;;;;;;7.03;3.20;;;;;;;;;;5075323;28;20260;-76
2023/09/20 04:09:45;;;;;;;7.17;3.40;;;;;;;;;;5079984;28;20269;-76
2023/09/20 04:12:12;;;;;;;10.97;3.40;;;;;;;;;;5095917;28;20186;-77
2023/09/20 04:14:38;;;;;;;12.07;3.50;;;;;;;;;;5094312;28;20194;-76
2023/09/20 04:17:04;;;;;;;7.90;3.87;;;;;;;;;;5061342;28;20218;-76
2023/09/20 04:19:31;;;;;;;10.93;3.63;;;;;;;;;;5078338;28;20181;-77
2023/09/20 04:21:57;;;;;;;9.10;3.60;;;;;;;;;;5084165;28;20184;-76
2023/09/20 04:24:23;;;;;;;6.43;3.23;;;;;;;;;;5085286;28;20198;-76
2023/09/20 04:26:49;;;;;;;10.37;3.73;;;;;;;;;;5058269;28;20194;-76
2023/09/20 04:29:16;;;;;;;6.07;3.30;;;;;;;;;;5075689;28;20259;-76
2023/09/20 04:31:43;;;;;;;8.07;3.43;;;;;;;;;;5057541;28;20167;-76
2023/09/20 04:34:10;;;;;;;7.97;3.70;;;;;;;;;;5047323;28;20186;-76
2023/09/20 04:36:36;;;;;;;9.13;3.47;;;;;;;;;;5095986;28;20412;-76
2023/09/20 04:39:04;;;;;;;11.23;4.03;;;;;;;;;;5078855;28;20216;-76
2023/09/20 04:41:32;;;;;;;8.13;3.30;;;;;;;;;;5086057;28;20308;-76
2023/09/20 04:43:58;;;;;;;10.17;3.83;;;;;;;;;;5081999;28;20185;-76
2023/09/20 04:46:27;;;;;;;10.97;3.70;;;;;;;;;;5076708;28;20214;-76
2023/09/20 04:48:53;;;;;;;11.23;3.50;;;;;;;;;;5084845;28;20210;-76
2023/09/20 04:51:20;;;;;;;9.37;3.50;;;;;;;;;;5085482;28;20182;-76
2023/09/20 04:53:47;;;;;;;7.90;3.47;;;;;;;;;;5060496;28;20190;-76
2023/09/20 04:56:13;;;;;;;12.53;4.10;;;;;;;;;;5061270;28;20206;-76
2023/09/20 04:58:39;;;;;;;7.67;3.17;;;;;;;;;;5059575;28;20174;-79
2023/09/20 05:01:05;;;;;;;11.40;3.33;;;;;;;;;;5066145;28;20185;-79
2023/09/20 05:03:31;;;;;;;8.77;3.37;;;;;;;;;;5057034;28;20183;-79
2023/09/20 05:05:57;;;;;;;10.47;3.70;;;;;;;;;;5060635;28;20210;-80
2023/09/20 05:08:23;;;;;;;10.03;3.83;;;;;;;;;;5061134;28;20231;-80
2023/09/20 05:10:49;;;;;;;8.33;3.47;;;;;;;;;;5056448;28;20182;-79
2023/09/20 05:13:16;;;;;;;8.93;3.57;;;;;;;;;;5040421;28;20262;-77
2023/09/20 05:15:42;;;;;;;9.60;3.40;;;;;;;;;;5040223;28;20225;-77
2023/09/20 05:18:09;;;;;;;8.03;3.63;;;;;;;;;;5039676;28;20229;-77
2023/09/20 05:20:35;;;;;;;8.67;3.50;;;;;;;;;;5040186;28;20183;-77
2023/09/20 05:23:03;;;;;;;10.80;3.87;;;;;;;;;;5040717;28;20214;-77
2023/09/20 05:25:30;;;;;;;9.50;3.50;;;;;;;;;;5074806;28;20248;-77
2023/09/20 05:27:56;;;;;;;11.50;3.63;;;;;;;;;;5057382;28;20184;-77
2023/09/20 05:30:22;;;;;;;6.17;3.23;;;;;;;;;;5074888;28;20216;-77
2023/09/20 05:32:51;;;;;;;11.33;3.67;;;;;;;;;;5056496;28;20171;-77
2023/09/20 05:35:17;;;;;;;11.43;3.90;;;;;;;;;;5056515;28;20185;-76
2023/09/20 05:37:44;;;;;;;9.10;3.80;;;;;;;;;;5040055;28;20273;-76
2023/09/20 05:40:17;;;;;;;9.37;4.03;;;;;;;;;;5056605;28;20205;-76
2023/09/20 05:42:44;;;;;;;7.70;3.40;;;;;;;;;;5055995;28;20235;-77
2023/09/20 05:45:10;;;;;;;9.10;4.10;;;;;;;;;;5038985;28;20233;-77
2023/09/20 05:47:36;;;;;;;8.57;4.00;;;;;;;;;;5039986;28;20183;-79
2023/09/20 05:50:03;;;;;;;13.93;4.20;;;;;;;;;;5056124;28;20175;-80
2023/09/20 05:52:29;;;;;;;10.87;3.83;;;;;;;;;;5039760;28;20182;-79
2023/09/20 05:54:55;;;;;;;13.07;4.33;;;;;;;;;;5039894;28;20183;-79
2023/09/20 05:57:22;;;;;;;10.43;3.67;;;;;;;;;;5057029;28;20176;-79
2023/09/20 05:59:48;;;;;;;9.17;3.57;;;;;;;;;;5039858;28;20183;-80
2023/09/20 06:02:14;;;;;;;11.00;3.93;;;;;;;;;;5039945;28;20193;-79
2023/09/20 06:04:40;;;;;;;9.13;3.67;;;;;;;;;;5039730;28;20215;-77
2023/09/20 06:07:06;;;;;;;6.47;3.80;;;;;;;;;;5074168;28;20225;-77
2023/09/20 06:09:32;;;;;;;9.63;3.27;;;;;;;;;;5040130;28;20183;-77
2023/09/20 06:11:58;;;;;;;6.97;3.37;;;;;;;;;;5056593;28;20182;-77
2023/09/20 06:14:24;;;;;;;7.57;3.47;;;;;;;;;;5056502;28;20180;-77
2023/09/20 06:16:51;;;;;;;6.57;3.57;;;;;;;;;;5057053;28;20305;-77
2023/09/20 06:19:17;;;;;;;7.53;3.17;;;;;;;;;;5039840;28;20190;-79
2023/09/20 06:21:44;;;;;;;8.47;3.37;;;;;;;;;;5056079;28;20184;-77
2023/09/20 06:24:11;;;;;;;5.77;3.50;;;;;;;;;;5055916;28;20184;-77
2023/09/20 06:26:40;;;;;;;7.57;3.50;;;;;;;;;;5039506;28;20194;-77
2023/09/20 06:29:06;;;;;;;10.93;3.53;;;;;;;;;;5056044;28;20168;-77
2023/09/20 06:31:32;;;;;;;12.43;3.50;;;;;;;;;;5039347;28;20274;-77
2023/09/20 06:33:58;;;;;;;7.57;3.40;;;;;;;;;;5039801;28;20183;-77
2023/09/20 06:36:25;;;;;;;8.13;3.40;;;;;;;;;;5055694;28;20179;-77
2023/09/20 06:38:51;;;;;;;8.40;3.37;;;;;;;;;;5073585;28;20230;-75
2023/09/20 06:41:17;;;;;;;6.87;3.20;;;;;;;;;;5055579;28;20223;-76
2023/09/20 06:43:43;;;;;;;9.10;3.77;;;;;;;;;;5055454;28;20274;-76
2023/09/20 06:46:09;;;;;;;6.93;3.30;;;;;;;;;;5073515;28;20207;-76
2023/09/20 06:48:37;;;;;;;8.23;3.67;;;;;;;;;;5055778;28;20341;-76
2023/09/20 06:51:03;;;;;;;8.93;3.47;;;;;;;;;;5074092;28;20274;-76
2023/09/20 06:53:30;;;;;;;9.80;3.63;;;;;;;;;;5074050;28;20167;-76
2023/09/20 06:55:59;;;;;;;8.00;3.23;;;;;;;;;;5069236;28;20217;-76
2023/09/20 06:58:25;;;;;;;10.50;3.47;;;;;;;;;;5059727;28;20186;-76
2023/09/20 07:00:52;;;;;;;8.73;3.50;;;;;;;;;;5077041;28;20261;-76
2023/09/20 07:03:22;;;;;;;9.73;4.00;;;;;;;;;;5071303;28;20183;-76
2023/09/20 07:05:48;;;;;;;9.00;3.43;;;;;;;;;;5079528;28;20206;-76
2023/09/20 07:08:15;;;;;;;7.33;3.50;;;;;;;;;;5079787;28;20175;-76
2023/09/20 07:10:42;;;;;;;8.23;3.27;;;;;;;;;;5063166;28;20182;-76
2023/09/20 07:13:10;;;;;;;8.37;3.50;;;;;;;;;;5063615;28;20182;-76
2023/09/20 07:15:36;;;;;;;7.70;3.33;;;;;;;;;;5079592;28;20183;-76
2023/09/20 07:18:11;;;;;;;9.00;3.80;;;;;;;;;;5079659;28;20181;-76
2023/09/20 07:20:39;;;;;;;7.33;3.43;;;;;;;;;;5079928;28;20182;-76
2023/09/20 07:23:08;;;;;;;6.10;3.27;;;;;;;;;;5073248;28;20218;-76
2023/09/20 07:25:36;;;;;;;9.37;3.47;;;;;;;;;;5069101;23;20232;-75
2023/09/20 07:28:04;;;;;;;8.87;3.40;;;;;;;;;;5035863;28;20177;-75
2023/09/20 07:30:31;;;;;;;9.20;3.33;;;;;;;;;;5021443;28;20162;-75
2023/09/20 07:33:02;;;;;;;6.17;3.30;;;;;;;;;;5017762;28;20324;-75
2023/09/20 07:35:36;;;;;;;7.20;3.33;;;;;;;;;;5021700;28;20223;-75
2023/09/20 07:38:04;;;;;;;7.23;3.33;;;;;;;;;;5020390;28;20184;-75
2023/09/20 07:40:33;;;;;;;5.30;3.30;;;;;;;;;;5035345;28;20248;-75
2023/09/20 07:43:03;;;;;;;8.47;3.17;;;;;;;;;;5035600;28;20180;-75
2023/09/20 07:45:42;;;;;;;4.97;3.30;;;;;;;;;;5036022;28;20232;-77
2023/09/20 07:48:12;;;;;;;5.27;2.97;;;;;;;;;;5020602;28;20192;-76
2023/09/20 07:50:59;;;;;;;6.30;3.20;;;;;;;;;;5036241;28;20231;-76
2023/09/20 07:53:26;;;;;;;5.57;3.10;;;;;;;;;;5035430;28;20200;-77
2023/09/20 07:56:03;;;;;;;7.90;3.13;;;;;;;;;;5027497;28;20268;-77
2023/09/20 07:58:32;;;;;;;8.23;3.20;;;;;;;;;;5035116;28;20267;-77
2023/09/20 08:00:59;;;;;;;5.43;3.07;;;;;;;;;;5003021;28;20185;-75
2023/09/20 08:03:32;;;;;;;6.60;3.10;;;;;;;;;;5031928;28;20263;-75
2023/09/20 08:05:58;;;;;;;6.00;3.00;;;;;;;;;;5025221;28;20217;-75
2023/09/20 08:08:24;;;;;;;8.23;3.10;;;;;;;;;;5017806;28;20291;-76
2023/09/20 08:10:50;;;;;;;7.50;3.10;;;;;;;;;;5034985;28;20177;-75
2023/09/20 08:13:16;;;;;;;7.53;3.07;;;;;;;;;;5034432;28;20181;-75
2023/09/20 08:15:42;;;;;;;4.47;2.60;;;;;;;;;;5034741;28;20185;-75
2023/09/20 08:20:54;;;;;;;6.40;3.00;;;;;;;;;;5033187;28;20330;-77
2023/09/20 09:01:51;;;;;;;5.63;2.43;;;;;;;;;;5041805;28;20206;-79
2023/09/20 09:04:18;;;;;;;5.63;2.60;;;;;;;;;;5007245;28;20180;-79
2023/09/20 09:06:45;;;;;;;6.27;2.50;;;;;;;;;;5001587;28;20181;-77
2023/09/20 09:09:11;;;;;;;4.57;2.30;;;;;;;;;;5018078;28;20181;-77
2023/09/20 09:11:37;;;;;;;3.20;2.20;;;;;;;;;;5019520;28;20259;-77
2023/09/20 09:14:04;;;;;;;3.33;2.37;;;;;;;;;;5001622;28;20177;-78
2023/09/20 09:16:34;;;;;;;3.57;2.40;;;;;;;;;;5000505;28;20189;-78
2023/09/20 09:19:00;;;;;;;5.97;2.70;;;;;;;;;;5014435;28;20441;-77
2023/09/20 09:21:30;;;;;;;4.27;2.27;;;;;;;;;;5017831;28;20184;-77
2023/09/20 09:23:57;;;;;;;3.87;2.20;;;;;;;;;;5011979;28;20180;-77
2023/09/20 09:26:25;;;;;;;3.93;2.40;;;;;;;;;;5024532;28;20232;-76
2023/09/20 09:28:51;;;;;;;4.70;2.40;;;;;;;;;;5033518;28;20192;-76
2023/09/20 09:31:17;;;;;;;3.30;2.30;;;;;;;;;;5017305;28;20185;-76
2023/09/20 09:33:43;;;;;;;5.00;2.27;;;;;;;;;;5017376;28;20184;-76
2023/09/20 09:36:12;;;;;;;5.77;2.37;;;;;;;;;;5033427;28;20182;-77
2023/09/20 09:38:39;;;;;;;5.60;2.50;;;;;;;;;;5030897;28;20181;-76
2023/09/20 09:41:08;;;;;;;5.90;2.77;;;;;;;;;;5014353;28;20244;-79
2023/09/20 09:43:34;;;;;;;4.43;2.70;;;;;;;;;;5014253;28;20173;-78
2023/09/20 09:46:10;;;;;;;6.07;3.17;;;;;;;;;;5014390;28;20201;-79
2023/09/20 09:48:39;;;;;;;5.37;3.00;;;;;;;;;;5014353;28;20181;-79
2023/09/20 09:51:06;;;;;;;6.43;3.47;;;;;;;;;;5014238;28;20188;-79
2023/09/20 09:53:34;;;;;;;8.57;3.20;;;;;;;;;;5014711;28;20215;-81
2023/09/20 09:56:03;;;;;;;5.77;3.10;;;;;;;;;;5014173;28;20184;-80
2023/09/20 09:58:29;;;;;;;6.47;3.20;;;;;;;;;;5013775;28;20177;-80
2023/09/20 10:00:57;;;;;;;12.13;3.47;;;;;;;;;;5013939;28;20195;-77
2023/09/20 10:03:32;;;;;;;8.10;3.20;;;;;;;;;;5014255;28;20195;-77
2023/09/20 10:06:12;;;;;;;8.30;3.80;;;;;;;;;;5015106;28;20205;-77
2023/09/20 10:08:39;;;;;;;8.07;3.67;;;;;;;;;;5013865;28;20213;-77
2023/09/20 10:11:06;;;;;;;5.93;3.20;;;;;;;;;;5013679;28;20182;-77
2023/09/20 10:13:33;;;;;;;9.73;3.60;;;;;;;;;;5014123;28;20201;-77
2023/09/20 10:16:04;;;;;;;5.87;3.20;;;;;;;;;;5014912;28;20181;-77
2023/09/20 10:18:52;;;;;;;7.23;3.23;;;;;;;;;;5014843;28;20186;-77
2023/09/20 10:21:22;;;;;;;5.13;3.30;;;;;;;;;;5013746;28;20185;-77
2023/09/20 10:23:48;;;;;;;4.97;3.10;;;;;;;;;;5013401;28;20267;-77
2023/09/20 10:26:15;;;;;;;6.60;3.37;;;;;;;;;;5025809;28;20238;-77
2023/09/20 10:28:45;;;;;;;6.67;3.57;;;;;;;;;;5033136;28;20203;-77
2023/09/20 10:31:15;;;;;;;5.97;3.20;;;;;;;;;;5017916;28;20180;-77
2023/09/20 10:33:47;;;;;;;6.07;3.20;;;;;;;;;;5020860;28;20207;-76
2023/09/20 10:36:22;;;;;;;6.33;3.07;;;;;;;;;;5037024;28;20172;-76
2023/09/20 10:38:48;;;;;;;6.03;3.00;;;;;;;;;;5037086;28;20180;-76
2023/09/20 10:41:16;;;;;;;7.97;3.28;;;;;;;;;;5036702;28;20453;-76
2023/09/20 10:43:43;;;;;;;4.83;2.77;;;;;;;;;;5020815;28;20230;-76
2023/09/20 10:46:10;;;;;;;5.78;2.92;;;;;;;;;;5020087;28;20432;-78
2023/09/20 10:48:40;;;;;;;7.87;2.93;;;;;;;;;;5036864;28;20173;-76
2023/09/20 10:51:07;;;;;;;5.68;3.20;;;;;;;;;;5036156;28;20440;-76
2023/09/20 10:53:56;;;;;;;5.22;2.47;;;;;;;;;;5020334;28;20064;-76
2023/09/20 10:56:41;;;;;;;5.78;2.83;;;;;;;;;;5025656;28;20465;-76
2023/09/20 10:59:09;;;;;;;5.38;2.72;;;;;;;;;;5024114;28;20410;-76
2023/09/20 11:01:36;;;;;;;5.22;2.78;;;;;;;;;;5017211;28;20407;-76
2023/09/20 11:04:05;;;;;;;5.80;2.70;;;;;;;;;;5000087;28;20423;-78
2023/09/20 11:06:32;;;;;;;4.93;2.60;;;;;;;;;;4999695;28;20442;-78
2023/09/20 11:08:59;;;;;;;5.32;2.83;;;;;;;;;;4999525;28;20450;-78
2023/09/20 11:11:28;;;;;;;5.70;2.88;;;;;;;;;;5000003;28;20407;-78
2023/09/20 11:13:54;;;;;;;4.43;2.80;;;;;;;;;;5000218;28;20441;-78
2023/09/20 11:16:21;;;;;;;7.38;2.65;;;;;;;;;;5000510;28;20431;-78
2023/09/20 11:18:48;;;;;;;5.70;2.70;;;;;;;;;;4999866;28;20466;-78
2023/09/20 11:21:15;;;;;;;3.05;2.45;;;;;;;;;;5015915;28;20410;-76
2023/09/20 11:23:41;;;;;;;6.78;2.50;;;;;;;;;;5000536;28;20502;-76
2023/09/20 11:26:08;;;;;;;5.18;2.60;;;;;;;;;;5007909;28;20514;-77
2023/09/20 11:28:34;;;;;;;7.38;2.67;;;;;;;;;;4999249;28;20433;-76
2023/09/20 11:31:00;;;;;;;8.07;2.60;;;;;;;;;;4999788;28;20442;-76
2023/09/20 11:33:30;;;;;;;4.93;2.30;;;;;;;;;;4999826;28;20407;-77
2023/09/20 11:35:56;;;;;;;6.68;2.40;;;;;;;;;;4999053;28;20469;-76
2023/09/20 11:38:23;;;;;;;5.07;2.30;;;;;;;;;;4999210;28;20408;-80
2023/09/20 11:40:49;;;;;;;5.80;2.20;;;;;;;;;;4999929;28;20177;-80
2023/09/20 11:43:22;;;;;;;4.93;2.20;;;;;;;;;;4998455;28;20188;-80
2023/09/20 11:45:52;;;;;;;5.15;2.20;;;;;;;;;;5016437;28;20209;-80
2023/09/20 11:48:18;;;;;;;3.13;2.10;;;;;;;;;;4999787;28;20170;-80
2023/09/20 11:50:46;;;;;;;3.70;1.95;;;;;;;;;;5000256;28;20205;-80
2023/09/20 11:53:15;;;;;;;4.33;1.90;;;;;;;;;;5017233;28;20169;-82
2023/09/20 11:55:45;;;;;;;6.00;2.30;;;;;;;;;;4999821;28;20190;-81
2023/09/20 11:58:11;;;;;;;6.83;2.27;;;;;;;;;;4999400;28;20181;-80
2023/09/20 12:00:40;;;;;;;6.20;2.10;;;;;;;;;;4999862;28;20188;-79
2023/09/20 12:03:08;;;;;;;3.83;2.00;;;;;;;;;;4999688;28;20177;-79
2023/09/20 12:05:34;;;;;;;4.57;2.00;;;;;;;;;;4999579;28;20221;-80
2023/09/20 12:08:01;;;;;;;7.00;2.07;;;;;;;;;;4999381;28;20182;-80
2023/09/20 12:10:29;;;;;;;4.70;2.00;;;;;;;;;;4999492;28;20188;-78
2023/09/20 12:12:56;;;;;;;3.50;2.00;;;;;;;;;;5016040;28;20173;-78
2023/09/20 12:15:25;;;;;;;5.27;2.10;;;;;;;;;;4998679;28;20169;-78
2023/09/20 12:17:52;;;;;;;3.30;1.90;;;;;;;;;;4998961;28;20193;-78
2023/09/20 12:20:22;;;;;;;3.40;2.03;;;;;;;;;;4999077;28;20177;-78
2023/09/20 12:22:48;;;;;;;6.10;2.10;;;;;;;;;;5015796;28;20181;-78
2023/09/20 12:25:16;;;;;;;3.78;1.90;;;;;;;;;;4998921;28;20489;-78
2023/09/20 12:27:48;;;;;;;5.00;1.87;;;;;;;;;;5018200;28;20229;-77
2023/09/20 12:30:14;;;;;;;6.53;1.97;;;;;;;;;;5017970;28;20268;-77
2023/09/20 12:32:41;;;;;;;6.27;2.00;;;;;;;;;;5036094;28;20169;-77
2023/09/20 12:35:09;;;;;;;4.53;1.87;;;;;;;;;;5018305;28;20185;-77
2023/09/20 12:37:35;;;;;;;3.50;2.10;;;;;;;;;;5017806;28;20268;-77
2023/09/20 12:40:06;;;;;;;4.03;2.20;;;;;;;;;;5035818;28;20169;-76
2023/09/20 12:42:34;;;;;;;2.60;1.83;;;;;;;;;;5019901;28;20268;-77
2023/09/20 12:45:04;;;;;;;3.23;2.23;;;;;;;;;;5002836;28;20216;-80
2023/09/20 12:47:31;;;;;;;3.87;2.10;;;;;;;;;;5036014;28;20169;-80
2023/09/20 12:49:57;;;;;;;5.37;2.00;;;;;;;;;;5001899;28;20180;-80
2023/09/20 12:52:23;;;;;;;3.63;2.13;;;;;;;;;;5002006;28;20196;-80
2023/09/20 12:54:49;;;;;;;5.53;1.80;;;;;;;;;;5001291;28;20191;-80
2023/09/20 12:57:15;;;;;;;4.50;2.00;;;;;;;;;;5002020;28;20219;-80
2023/09/20 12:59:42;;;;;;;3.72;2.00;;;;;;;;;;5001791;28;20247;-80
2023/09/20 13:02:08;;;;;;;5.80;2.10;;;;;;;;;;5017743;28;20263;-77
2023/09/20 13:04:34;;;;;;;4.60;2.00;;;;;;;;;;5017633;28;20192;-77
2023/09/20 13:07:01;;;;;;;4.50;2.03;;;;;;;;;;5017775;28;20184;-77
2023/09/20 13:09:27;;;;;;;3.90;2.00;;;;;;;;;;5017960;28;20186;-78
2023/09/20 13:11:53;;;;;;;4.63;2.20;;;;;;;;;;5001369;28;20181;-77
2023/09/20 13:14:19;;;;;;;4.83;2.23;;;;;;;;;;5001201;28;20180;-77
2023/09/20 13:16:49;;;;;;;3.07;1.80;;;;;;;;;;5001753;28;20185;-76
2023/09/20 13:19:18;;;;;;;6.83;2.30;;;;;;;;;;5031205;28;20189;-76
2023/09/20 13:21:45;;;;;;;4.57;2.10;;;;;;;;;;5017416;28;20192;-76
2023/09/20 13:24:11;;;;;;;4.00;2.40;;;;;;;;;;5017520;28;20444;-76
2023/09/20 13:26:38;;;;;;;5.80;2.40;;;;;;;;;;5026480;22;20463;-81
2023/09/20 13:29:05;;;;;;;3.78;2.50;;;;;;;;;;5020219;28;20428;-82
2023/09/20 13:31:40;;;;;;;6.10;2.35;;;;;;;;;;5035996;28;20416;-80
2023/09/20 13:34:14;;;;;;;5.30;2.38;;;;;;;;;;5035200;28;20419;-84
2023/09/20 13:36:40;;;;;;;5.15;2.22;;;;;;;;;;5020843;28;20432;-86
2023/09/20 13:39:06;;;;;;;5.20;2.40;;;;;;;;;;5036479;28;20408;-86
2023/09/20 13:41:32;;;;;;;5.37;2.37;;;;;;;;;;5019966;28;20431;-86
2023/09/20 13:43:58;;;;;;;4.82;2.42;;;;;;;;;;5037380;28;20423;-87
2023/09/20 13:46:25;;;;;;;4.07;2.50;;;;;;;;;;5036487;28;20493;-80
2023/09/20 13:48:51;;;;;;;2.40;1.92;;;;;;;;;;5037572;28;20180;-80
2023/09/20 13:51:17;;;;;;;6.20;2.50;;;;;;;;;;5020756;28;20271;-77
2023/09/20 13:53:44;;;;;;;3.45;2.47;;;;;;;;;;5038354;28;20179;-78
2023/09/20 13:56:11;;;;;;;5.30;2.40;;;;;;;;;;5037400;28;20422;-78
2023/09/20 13:58:37;;;;;;;3.35;2.40;;;;;;;;;;5022807;28;20175;-80
2023/09/20 14:01:05;;;;;;;4.32;2.33;;;;;;;;;;5017566;28;20216;-79
2023/09/20 14:03:34;;;;;;;6.43;2.30;;;;;;;;;;5019234;28;20189;-80
2023/09/20 14:06:01;;;;;;;6.07;2.47;;;;;;;;;;5036312;28;20562;-79
2023/09/20 14:08:27;;;;;;;5.85;2.20;;;;;;;;;;5039293;28;20405;-77
2023/09/20 14:10:53;;;;;;;5.15;2.55;;;;;;;;;;5037428;28;20410;-77
2023/09/20 14:13:19;;;;;;;5.13;2.22;;;;;;;;;;5020932;28;20428;-77
2023/09/20 14:15:45;;;;;;;6.57;2.50;;;;;;;;;;5037344;28;20456;-77
2023/09/20 14:18:11;;;;;;;5.47;2.10;;;;;;;;;;5021811;28;20176;-77
2023/09/20 14:20:42;;;;;;;5.97;1.90;;;;;;;;;;5038777;28;20177;-77
2023/09/20 14:23:08;;;;;;;6.63;2.17;;;;;;;;;;5038047;28;20188;-78
2023/09/20 14:25:35;;;;;;;4.70;2.23;;;;;;;;;;5038161;28;20280;-77
2023/09/20 14:28:01;;;;;;;2.95;2.10;;;;;;;;;;5037048;28;20176;-78
2023/09/20 14:30:27;;;;;;;6.87;2.37;;;;;;;;;;5037255;28;20196;-78
2023/09/20 14:32:54;;;;;;;5.10;2.00;;;;;;;;;;5021070;28;20208;-78
2023/09/20 14:35:22;;;;;;;3.90;2.00;;;;;;;;;;5037428;28;20184;-78
2023/09/20 14:37:50;;;;;;;4.78;2.10;;;;;;;;;;5036520;28;20464;-77
2023/09/20 14:40:21;;;;;;;4.45;2.20;;;;;;;;;;5036097;28;20413;-83
2023/09/20 14:42:54;;;;;;;5.03;2.28;;;;;;;;;;5035637;28;20440;-84
2023/09/20 14:45:23;;;;;;;5.90;2.22;;;;;;;;;;5035980;28;20429;-85
2023/09/20 14:47:50;;;;;;;3.78;2.10;;;;;;;;;;5035604;28;20504;-84
2023/09/20 14:50:16;;;;;;;5.82;2.10;;;;;;;;;;5037072;28;20219;-84
2023/09/20 14:52:43;;;;;;;3.78;2.10;;;;;;;;;;5036961;28;20223;-84
2023/09/20 14:55:12;;;;;;;3.28;1.83;;;;;;;;;;5036549;28;20169;-84
2023/09/20 14:57:39;;;;;;;3.60;1.70;;;;;;;;;;5037771;28;20165;-84
2023/09/20 15:00:06;;;;;;;4.78;1.88;;;;;;;;;;5037408;28;20171;-84
2023/09/20 15:02:35;;;;;;;3.50;1.80;;;;;;;;;;5020097;28;20278;-84
2023/09/20 15:05:03;;;;;;;5.50;1.93;;;;;;;;;;5036230;28;20200;-83
2023/09/20 15:07:29;;;;;;;2.50;1.90;;;;;;;;;;5037645;28;20161;-84
2023/09/20 15:09:55;;;;;;;4.43;2.40;;;;;;;;;;5019693;28;20176;-84
2023/09/20 15:12:21;;;;;;;5.43;1.97;;;;;;;;;;5019922;28;20260;-84
2023/09/20 15:14:47;;;;;;;3.75;1.60;;;;;;;;;;5019934;28;20176;-84
2023/09/20 15:17:14;;;;;;;5.47;1.80;;;;;;;;;;5019858;28;20177;-84
2023/09/20 15:19:40;;;;;;;2.40;1.70;;;;;;;;;;5020183;28;20177;-84
2023/09/20 15:22:06;;;;;;;2.97;1.80;;;;;;;;;;5036080;28;20183;-84
2023/09/20 15:24:32;;;;;;;4.43;1.93;;;;;;;;;;5020466;28;20184;-84